sensor_id;sensor_type;location;lat;lon;timestamp;pressure;altitude;pressure_sealevel;temperature;humidity
49451;BME280;35336;48.400;10.886;2024-02-28T00:00:12;96083.84;;;6.03;90.04
49451;BME280;35336;48.400;10.886;2024-02-28T00:00:27;96080.53;;;6.01;90.18
49451;BME280;35336;48.400;10.886;2024-02-28T00:00:43;96076.25;;;6.00;90.32
49451;BME280;35336;48.400;10.886;2024-02-28T00:01:00;96058.09;;;5.89;90.07
49451;BME280;35336;48.400;10.886;2024-02-28T00:01:16;96063.38;;;5.89;89.99
49451;BME280;35336;48.400;10.886;2024-02-28T00:01:31;96080.72;;;6.00;90.04
49451;BME280;35336;48.400;10.886;2024-02-28T00:01:51;96075.25;;;6.01;90.40
49451;BME280;35336;48.400;10.886;2024-02-28T00:02:06;96076.25;;;6.00;90.33
49451;BME280;35336;48.400;10.886;2024-02-28T00:02:23;96079.88;;;5.99;90.35
49451;BME280;35336;48.400;10.886;2024-02-28T00:02:39;96070.13;;;6.00;90.41
49451;BME280;35336;48.400;10.886;2024-02-28T00:02:54;96072.94;;;5.98;90.56
49451;BME280;35336;48.400;10.886;2024-02-28T00:03:09;96074.75;;;5.98;90.45
49451;BME280;35336;48.400;10.886;2024-02-28T00:03:25;96063.38;;;5.89;90.73
49451;BME280;35336;48.400;10.886;2024-02-28T00:03:40;96084.50;;;5.97;90.61
49451;BME280;35336;48.400;10.886;2024-02-28T00:03:55;96048.53;;;5.80;90.66
49451;BME280;35336;48.400;10.886;2024-02-28T00:04:11;96080.22;;;5.96;90.75
49451;BME280;35336;48.400;10.886;2024-02-28T00:04:26;96056.78;;;5.85;90.50
49451;BME280;35336;48.400;10.886;2024-02-28T00:04:41;96076.56;;;5.97;90.38
49451;BME280;35336;48.400;10.886;2024-02-28T00:04:59;96073.25;;;5.95;90.43
49451;BME280;35336;48.400;10.886;2024-02-28T00:05:14;96071.63;;;5.94;90.48
49451;BME280;35336;48.400;10.886;2024-02-28T00:05:29;96077.91;;;5.93;90.50
49451;BME280;35336;48.400;10.886;2024-02-28T00:05:47;96034.69;;;5.69;90.70
49451;BME280;35336;48.400;10.886;2024-02-28T00:06:02;96065.38;;;5.87;90.79
49451;BME280;35336;48.400;10.886;2024-02-28T00:06:18;96057.47;;;5.79;90.66
49451;BME280;35336;48.400;10.886;2024-02-28T00:06:35;96078.91;;;5.92;90.91
49451;BME280;35336;48.400;10.886;2024-02-28T00:06:50;96068.00;;;5.87;90.70
49451;BME280;35336;48.400;10.886;2024-02-28T00:07:06;96071.00;;;5.84;90.67
49451;BME280;35336;48.400;10.886;2024-02-28T00:07:23;96054.34;;;5.75;90.93
49451;BME280;35336;48.400;10.886;2024-02-28T00:07:39;96075.94;;;5.87;90.88
49451;BME280;35336;48.400;10.886;2024-02-28T00:07:56;96074.66;;;5.83;90.83
49451;BME280;35336;48.400;10.886;2024-02-28T00:08:14;96079.25;;;5.89;90.98
49451;BME280;35336;48.400;10.886;2024-02-28T00:08:29;96073.97;;;5.89;90.80
49451;BME280;35336;48.400;10.886;2024-02-28T00:08:46;96079.41;;;5.87;90.87
49451;BME280;35336;48.400;10.886;2024-02-28T00:09:01;96082.41;;;5.84;90.75
49451;BME280;35336;48.400;10.886;2024-02-28T00:09:16;96058.16;;;5.72;90.61
49451;BME280;35336;48.400;10.886;2024-02-28T00:09:32;96072.31;;;5.88;90.99
49451;BME280;35336;48.400;10.886;2024-02-28T00:09:47;96076.94;;;5.86;90.84
49451;BME280;35336;48.400;10.886;2024-02-28T00:10:02;96082.25;;;5.86;90.90
49451;BME280;35336;48.400;10.886;2024-02-28T00:10:18;96076.94;;;5.86;90.77
49451;BME280;35336;48.400;10.886;2024-02-28T00:10:33;96078.94;;;5.84;90.97
49451;BME280;35336;48.400;10.886;2024-02-28T00:10:48;96079.78;;;5.84;91.09
49451;BME280;35336;48.400;10.886;2024-02-28T00:11:03;96062.47;;;5.73;90.83
49451;BME280;35336;48.400;10.886;2024-02-28T00:11:19;96070.69;;;5.79;91.49
49451;BME280;35336;48.400;10.886;2024-02-28T00:11:34;96071.06;;;5.76;91.10
49451;BME280;35336;48.400;10.886;2024-02-28T00:11:49;96064.94;;;5.75;91.71
49451;BME280;35336;48.400;10.886;2024-02-28T00:12:05;96064.44;;;5.71;91.32
49451;BME280;35336;48.400;10.886;2024-02-28T00:12:20;96077.47;;;5.81;91.41
49451;BME280;35336;48.400;10.886;2024-02-28T00:12:35;96073.34;;;5.79;91.54
49451;BME280;35336;48.400;10.886;2024-02-28T00:12:51;96062.47;;;5.73;91.56
49451;BME280;35336;48.400;10.886;2024-02-28T00:13:06;96047.28;;;5.67;91.53
49451;BME280;35336;48.400;10.886;2024-02-28T00:13:21;96082.91;;;5.88;91.18
49451;BME280;35336;48.400;10.886;2024-02-28T00:13:37;96072.50;;;5.86;91.24
49451;BME280;35336;48.400;10.886;2024-02-28T00:13:52;96068.34;;;5.84;91.12
49451;BME280;35336;48.400;10.886;2024-02-28T00:14:07;96074.47;;;5.84;91.29
49451;BME280;35336;48.400;10.886;2024-02-28T00:14:23;96077.78;;;5.86;91.12
49451;BME280;35336;48.400;10.886;2024-02-28T00:14:38;96071.00;;;5.84;91.00
49451;BME280;35336;48.400;10.886;2024-02-28T00:14:54;96074.47;;;5.84;91.19
49451;BME280;35336;48.400;10.886;2024-02-28T00:15:09;96068.81;;;5.87;91.11
49451;BME280;35336;48.400;10.886;2024-02-28T00:15:24;96054.84;;;5.70;91.24
49451;BME280;35336;48.400;10.886;2024-02-28T00:15:42;96066.06;;;5.81;91.06
49451;BME280;35336;48.400;10.886;2024-02-28T00:15:58;96046.44;;;5.67;91.10
49451;BME280;35336;48.400;10.886;2024-02-28T00:16:13;96071.00;;;5.84;91.40
49451;BME280;35336;48.400;10.886;2024-02-28T00:16:31;96075.28;;;5.85;91.43
49451;BME280;35336;48.400;10.886;2024-02-28T00:16:46;96057.34;;;5.72;91.07
49451;BME280;35336;48.400;10.886;2024-02-28T00:17:02;96074.28;;;5.86;91.26
49451;BME280;35336;48.400;10.886;2024-02-28T00:17:19;96062.75;;;5.79;91.54
49451;BME280;35336;48.400;10.886;2024-02-28T00:17:34;96074.00;;;5.81;91.22
49451;BME280;35336;48.400;10.886;2024-02-28T00:17:51;96071.84;;;5.84;91.33
49451;BME280;35336;48.400;10.886;2024-02-28T00:18:09;96067.72;;;5.82;91.60
49451;BME280;35336;48.400;10.886;2024-02-28T00:18:25;96067.72;;;5.82;91.50
49451;BME280;35336;48.400;10.886;2024-02-28T00:18:40;96063.06;;;5.84;91.37
49451;BME280;35336;48.400;10.886;2024-02-28T00:18:56;96066.84;;;5.89;91.32
49451;BME280;35336;48.400;10.886;2024-02-28T00:19:11;96070.31;;;5.90;91.31
49451;BME280;35336;48.400;10.886;2024-02-28T00:19:27;96071.47;;;5.87;91.41
49451;BME280;35336;48.400;10.886;2024-02-28T00:19:44;96075.47;;;5.83;91.05
49451;BME280;35336;48.400;10.886;2024-02-28T00:20:00;96074.66;;;5.83;91.46
49451;BME280;35336;48.400;10.886;2024-02-28T00:20:15;96070.50;;;5.80;91.43
49451;BME280;35336;48.400;10.886;2024-02-28T00:20:30;96069.72;;;5.80;91.50
49451;BME280;35336;48.400;10.886;2024-02-28T00:20:46;96076.00;;;5.79;91.63
49451;BME280;35336;48.400;10.886;2024-02-28T00:21:01;96071.69;;;5.78;91.62
49451;BME280;35336;48.400;10.886;2024-02-28T00:21:16;96073.72;;;5.76;91.81
49451;BME280;35336;48.400;10.886;2024-02-28T00:21:32;96069.41;;;5.75;91.86
49451;BME280;35336;48.400;10.886;2024-02-28T00:21:47;96075.03;;;5.71;92.08
49451;BME280;35336;48.400;10.886;2024-02-28T00:22:02;96049.97;;;5.59;91.91
49451;BME280;35336;48.400;10.886;2024-02-28T00:22:18;96078.16;;;5.75;92.05
49451;BME280;35336;48.400;10.886;2024-02-28T00:22:35;96054.75;;;5.64;91.89
49451;BME280;35336;48.400;10.886;2024-02-28T00:22:50;96076.50;;;5.74;92.18
49451;BME280;35336;48.400;10.886;2024-02-28T00:23:06;96074.84;;;5.73;92.50
49451;BME280;35336;48.400;10.886;2024-02-28T00:23:21;96080.81;;;5.75;92.15
49451;BME280;35336;48.400;10.886;2024-02-28T00:23:36;96044.84;;;5.57;92.00
49451;BME280;35336;48.400;10.886;2024-02-28T00:23:52;96073.03;;;5.73;92.15
49451;BME280;35336;48.400;10.886;2024-02-28T00:24:07;96078.63;;;5.79;92.26
49451;BME280;35336;48.400;10.886;2024-02-28T00:24:23;96078.16;;;5.75;91.85
49451;BME280;35336;48.400;10.886;2024-02-28T00:24:38;96072.38;;;5.71;92.04
49451;BME280;35336;48.400;10.886;2024-02-28T00:24:53;96078.16;;;5.75;92.08
49451;BME280;35336;48.400;10.886;2024-02-28T00:25:09;96057.53;;;5.62;91.94
49451;BME280;35336;48.400;10.886;2024-02-28T00:25:24;96071.56;;;5.71;92.19
49451;BME280;35336;48.400;10.886;2024-02-28T00:25:39;96078.16;;;5.75;92.21
49451;BME280;35336;48.400;10.886;2024-02-28T00:25:54;96083.94;;;5.79;91.87
49451;BME280;35336;48.400;10.886;2024-02-28T00:26:12;96079.47;;;5.79;92.06
49451;BME280;35336;48.400;10.886;2024-02-28T00:26:27;96081.28;;;5.79;91.94
49451;BME280;35336;48.400;10.886;2024-02-28T00:26:43;96084.78;;;5.79;91.80
49451;BME280;35336;48.400;10.886;2024-02-28T00:26:58;96059.66;;;5.67;92.29
49451;BME280;35336;48.400;10.886;2024-02-28T00:27:13;96075.00;;;5.80;91.71
49451;BME280;35336;48.400;10.886;2024-02-28T00:27:29;96085.56;;;5.80;91.77
49451;BME280;35336;48.400;10.886;2024-02-28T00:27:44;96085.41;;;5.81;91.97
49451;BME280;35336;48.400;10.886;2024-02-28T00:28:01;96088.03;;;5.81;91.68
49451;BME280;35336;48.400;10.886;2024-02-28T00:28:17;96072.06;;;5.75;91.70
49451;BME280;35336;48.400;10.886;2024-02-28T00:28:32;96087.56;;;5.78;91.94
49451;BME280;35336;48.400;10.886;2024-02-28T00:28:47;96083.94;;;5.79;91.86
49451;BME280;35336;48.400;10.886;2024-02-28T00:29:05;96087.56;;;5.78;91.89
49451;BME280;35336;48.400;10.886;2024-02-28T00:29:20;96080.47;;;5.78;91.78
49451;BME280;35336;48.400;10.886;2024-02-28T00:29:35;96087.56;;;5.78;91.96
49451;BME280;35336;48.400;10.886;2024-02-28T00:29:50;96093.84;;;5.77;91.71
49451;BME280;35336;48.400;10.886;2024-02-28T00:30:06;96091.88;;;5.79;91.67
49451;BME280;35336;48.400;10.886;2024-02-28T00:30:21;96092.03;;;5.77;91.98
49451;BME280;35336;48.400;10.886;2024-02-28T00:30:37;96089.56;;;5.76;92.00
49451;BME280;35336;48.400;10.886;2024-02-28T00:30:52;96081.78;;;5.74;92.05
49451;BME280;35336;48.400;10.886;2024-02-28T00:31:07;96074.50;;;5.76;91.98
49451;BME280;35336;48.400;10.886;2024-02-28T00:31:23;96061.22;;;5.61;91.70
49451;BME280;35336;48.400;10.886;2024-02-28T00:31:38;96084.91;;;5.78;91.79
49451;BME280;35336;48.400;10.886;2024-02-28T00:31:53;96051.66;;;5.52;91.48
49451;BME280;35336;48.400;10.886;2024-02-28T00:32:09;96072.41;;;5.63;91.83
49451;BME280;35336;48.400;10.886;2024-02-28T00:32:24;96090.56;;;5.75;91.71
49451;BME280;35336;48.400;10.886;2024-02-28T00:32:39;96088.72;;;5.75;91.90
49451;BME280;35336;48.400;10.886;2024-02-28T00:32:54;96055.94;;;5.53;91.81
49451;BME280;35336;48.400;10.886;2024-02-28T00:33:10;96090.56;;;5.75;92.06
49451;BME280;35336;48.400;10.886;2024-02-28T00:33:25;96091.56;;;5.73;91.80
49451;BME280;35336;48.400;10.886;2024-02-28T00:33:40;96082.66;;;5.66;92.28
49451;BME280;35336;48.400;10.886;2024-02-28T00:33:55;96069.81;;;5.55;92.01
49451;BME280;35336;48.400;10.886;2024-02-28T00:34:11;96082.00;;;5.64;91.98
49451;BME280;35336;48.400;10.886;2024-02-28T00:34:26;96093.91;;;5.68;92.13
49451;BME280;35336;48.400;10.886;2024-02-28T00:34:41;96070.81;;;5.54;92.26
49451;BME280;35336;48.400;10.886;2024-02-28T00:34:56;96086.13;;;5.67;92.22
49451;BME280;35336;48.400;10.886;2024-02-28T00:35:12;96089.94;;;5.64;92.21
49451;BME280;35336;48.400;10.886;2024-02-28T00:35:31;96093.25;;;5.66;92.14
49451;BME280;35336;48.400;10.886;2024-02-28T00:35:47;96089.13;;;5.64;92.38
49451;BME280;35336;48.400;10.886;2024-02-28T00:36:05;96096.06;;;5.65;92.56
49451;BME280;35336;48.400;10.886;2024-02-28T00:36:20;96088.66;;;5.60;92.62
49451;BME280;35336;48.400;10.886;2024-02-28T00:36:35;96087.66;;;5.61;92.77
49451;BME280;35336;48.400;10.886;2024-02-28T00:36:50;96089.94;;;5.64;92.90
49451;BME280;35336;48.400;10.886;2024-02-28T00:37:06;96088.47;;;5.62;92.57
49451;BME280;35336;48.400;10.886;2024-02-28T00:37:21;96095.59;;;5.61;92.63
49451;BME280;35336;48.400;10.886;2024-02-28T00:37:36;96072.81;;;5.52;92.59
49451;BME280;35336;48.400;10.886;2024-02-28T00:37:52;96097.88;;;5.64;92.73
49451;BME280;35336;48.400;10.886;2024-02-28T00:38:07;96091.59;;;5.65;92.93
49451;BME280;35336;48.400;10.886;2024-02-28T00:38:22;96076.59;;;5.57;92.77
49451;BME280;35336;48.400;10.886;2024-02-28T00:38:37;96086.63;;;5.62;93.01
49451;BME280;35336;48.400;10.886;2024-02-28T00:38:53;96097.53;;;5.67;92.96
49451;BME280;35336;48.400;10.886;2024-02-28T00:39:08;96097.53;;;5.67;92.69
49451;BME280;35336;48.400;10.886;2024-02-28T00:39:25;96068.31;;;5.52;92.93
49451;BME280;35336;48.400;10.886;2024-02-28T00:39:41;96093.91;;;5.68;92.42
49451;BME280;35336;48.400;10.886;2024-02-28T00:39:56;96095.88;;;5.66;92.37
49451;BME280;35336;48.400;10.886;2024-02-28T00:40:12;96080.72;;;5.60;92.76
49451;BME280;35336;48.400;10.886;2024-02-28T00:40:29;96087.28;;;5.64;92.56
49451;BME280;35336;48.400;10.886;2024-02-28T00:40:44;96065.19;;;5.49;92.66
49451;BME280;35336;48.400;10.886;2024-02-28T00:41:00;96090.59;;;5.66;92.66
49451;BME280;35336;48.400;10.886;2024-02-28T00:41:15;96090.59;;;5.66;92.85
49451;BME280;35336;48.400;10.886;2024-02-28T00:41:30;96083.66;;;5.65;92.80
49451;BME280;35336;48.400;10.886;2024-02-28T00:41:48;96079.84;;;5.68;92.53
49451;BME280;35336;48.400;10.886;2024-02-28T00:42:03;96087.44;;;5.71;92.18
49451;BME280;35336;48.400;10.886;2024-02-28T00:42:18;96088.25;;;5.71;92.33
49451;BME280;35336;48.400;10.886;2024-02-28T00:42:34;96089.25;;;5.70;92.13
49451;BME280;35336;48.400;10.886;2024-02-28T00:42:51;96079.19;;;5.66;92.22
49451;BME280;35336;48.400;10.886;2024-02-28T00:43:07;96088.13;;;5.65;92.20
49451;BME280;35336;48.400;10.886;2024-02-28T00:43:22;96078.06;;;5.60;92.19
49451;BME280;35336;48.400;10.886;2024-02-28T00:43:37;96067.84;;;5.49;92.34
49451;BME280;35336;48.400;10.886;2024-02-28T00:43:52;96092.59;;;5.64;92.40
49451;BME280;35336;48.400;10.886;2024-02-28T00:44:08;96080.06;;;5.58;92.73
49451;BME280;35336;48.400;10.886;2024-02-28T00:44:23;96091.59;;;5.65;92.73
49451;BME280;35336;48.400;10.886;2024-02-28T00:44:38;96090.94;;;5.63;92.61
49451;BME280;35336;48.400;10.886;2024-02-28T00:44:56;96086.63;;;5.62;92.42
49451;BME280;35336;48.400;10.886;2024-02-28T00:45:11;96083.34;;;5.60;92.82
49451;BME280;35336;48.400;10.886;2024-02-28T00:45:26;96094.56;;;5.62;92.84
49451;BME280;35336;48.400;10.886;2024-02-28T00:45:44;96087.97;;;5.58;92.72
49451;BME280;35336;48.400;10.886;2024-02-28T00:45:59;96090.44;;;5.60;93.29
49451;BME280;35336;48.400;10.886;2024-02-28T00:46:19;96089.63;;;5.59;92.80
49451;BME280;35336;48.400;10.886;2024-02-28T00:46:34;96089.47;;;5.61;92.88
49451;BME280;35336;48.400;10.886;2024-02-28T00:46:49;96096.59;;;5.60;92.57
49451;BME280;35336;48.400;10.886;2024-02-28T00:47:05;96077.44;;;5.50;92.84
49451;BME280;35336;48.400;10.886;2024-02-28T00:47:20;96089.63;;;5.59;92.69
49451;BME280;35336;48.400;10.886;2024-02-28T00:47:35;96091.28;;;5.60;92.74
49451;BME280;35336;48.400;10.886;2024-02-28T00:47:51;96093.09;;;5.60;93.01
49451;BME280;35336;48.400;10.886;2024-02-28T00:48:06;96093.28;;;5.58;92.86
49451;BME280;35336;48.400;10.886;2024-02-28T00:48:22;96085.34;;;5.58;93.04
49451;BME280;35336;48.400;10.886;2024-02-28T00:48:43;96100.03;;;5.61;93.13
49451;BME280;35336;48.400;10.886;2024-02-28T00:48:58;96069.84;;;5.47;93.00
49451;BME280;35336;48.400;10.886;2024-02-28T00:49:13;96096.22;;;5.63;93.10
49451;BME280;35336;48.400;10.886;2024-02-28T00:49:30;96095.22;;;5.64;92.98
49451;BME280;35336;48.400;10.886;2024-02-28T00:49:46;96090.59;;;5.66;92.64
49451;BME280;35336;48.400;10.886;2024-02-28T00:50:03;96092.59;;;5.64;92.44
49451;BME280;35336;48.400;10.886;2024-02-28T00:50:19;96081.53;;;5.61;92.55
49451;BME280;35336;48.400;10.886;2024-02-28T00:50:34;96091.41;;;5.67;92.77
49451;BME280;35336;48.400;10.886;2024-02-28T00:50:49;96094.25;;;5.65;92.76
49451;BME280;35336;48.400;10.886;2024-02-28T00:51:05;96095.22;;;5.64;92.48
49451;BME280;35336;48.400;10.886;2024-02-28T00:51:20;96072.31;;;5.48;92.46
49451;BME280;35336;48.400;10.886;2024-02-28T00:51:35;96089.63;;;5.59;92.56
49451;BME280;35336;48.400;10.886;2024-02-28T00:51:51;96101.69;;;5.62;92.53
49451;BME280;35336;48.400;10.886;2024-02-28T00:52:08;96096.09;;;5.56;92.85
49451;BME280;35336;48.400;10.886;2024-02-28T00:52:23;96087.50;;;5.54;92.75
49451;BME280;35336;48.400;10.886;2024-02-28T00:52:38;96098.22;;;5.61;92.64
49451;BME280;35336;48.400;10.886;2024-02-28T00:52:54;96091.81;;;5.55;92.76
49451;BME280;35336;48.400;10.886;2024-02-28T00:53:11;96100.22;;;5.59;92.81
49451;BME280;35336;48.400;10.886;2024-02-28T00:53:28;96107.16;;;5.60;92.99
49451;BME280;35336;48.400;10.886;2024-02-28T00:53:44;96091.63;;;5.57;92.71
49451;BME280;35336;48.400;10.886;2024-02-28T00:53:59;96098.38;;;5.60;93.01
49451;BME280;35336;48.400;10.886;2024-02-28T00:54:14;96093.09;;;5.60;92.68
49451;BME280;35336;48.400;10.886;2024-02-28T00:54:30;96099.03;;;5.62;92.74
49451;BME280;35336;48.400;10.886;2024-02-28T00:54:45;96099.03;;;5.62;92.77
49451;BME280;35336;48.400;10.886;2024-02-28T00:55:00;96097.56;;;5.59;92.72
49451;BME280;35336;48.400;10.886;2024-02-28T00:55:16;96100.53;;;5.64;92.87
49451;BME280;35336;48.400;10.886;2024-02-28T00:55:31;96099.84;;;5.62;92.55
49451;BME280;35336;48.400;10.886;2024-02-28T00:55:46;96064.41;;;5.40;92.33
49451;BME280;35336;48.400;10.886;2024-02-28T00:56:02;96097.56;;;5.59;92.63
49451;BME280;35336;48.400;10.886;2024-02-28T00:56:17;96099.53;;;5.65;92.27
49451;BME280;35336;48.400;10.886;2024-02-28T00:56:32;96102.00;;;5.67;92.65
49451;BME280;35336;48.400;10.886;2024-02-28T00:56:50;96091.28;;;5.60;92.43
49451;BME280;35336;48.400;10.886;2024-02-28T00:57:05;96101.50;;;5.63;92.45
49451;BME280;35336;48.400;10.886;2024-02-28T00:57:20;96103.16;;;5.64;92.56
49451;BME280;35336;48.400;10.886;2024-02-28T00:57:36;96102.16;;;5.65;92.49
49451;BME280;35336;48.400;10.886;2024-02-28T00:57:53;96103.16;;;5.64;92.41
49451;BME280;35336;48.400;10.886;2024-02-28T00:58:09;96100.69;;;5.63;92.51
49451;BME280;35336;48.400;10.886;2024-02-28T00:58:24;96104.34;;;5.62;92.73
49451;BME280;35336;48.400;10.886;2024-02-28T00:58:39;96100.88;;;5.61;92.77
49451;BME280;35336;48.400;10.886;2024-02-28T00:58:54;96099.03;;;5.62;92.46
49451;BME280;35336;48.400;10.886;2024-02-28T00:59:10;96104.34;;;5.62;92.72
49451;BME280;35336;48.400;10.886;2024-02-28T00:59:27;96101.88;;;5.60;92.59
49451;BME280;35336;48.400;10.886;2024-02-28T00:59:45;96107.97;;;5.61;92.39
49451;BME280;35336;48.400;10.886;2024-02-28T01:00:00;96101.50;;;5.63;92.27
49451;BME280;35336;48.400;10.886;2024-02-28T01:00:16;96104.34;;;5.62;92.56
49451;BME280;35336;48.400;10.886;2024-02-28T01:00:31;96096.22;;;5.63;92.33
49451;BME280;35336;48.400;10.886;2024-02-28T01:00:47;96097.88;;;5.64;92.49
49451;BME280;35336;48.400;10.886;2024-02-28T01:01:03;96102.00;;;5.67;92.21
49451;BME280;35336;48.400;10.886;2024-02-28T01:01:20;96106.28;;;5.68;92.04
49451;BME280;35336;48.400;10.886;2024-02-28T01:01:36;96096.22;;;5.63;92.49
49451;BME280;35336;48.400;10.886;2024-02-28T01:01:51;96100.53;;;5.64;92.12
49451;BME280;35336;48.400;10.886;2024-02-28T01:02:06;96102.34;;;5.64;92.53
49451;BME280;35336;48.400;10.886;2024-02-28T01:02:21;96106.97;;;5.62;92.41
49451;BME280;35336;48.400;10.886;2024-02-28T01:02:39;96068.72;;;5.41;92.31
49451;BME280;35336;48.400;10.886;2024-02-28T01:02:54;96104.16;;;5.63;92.71
49451;BME280;35336;48.400;10.886;2024-02-28T01:03:10;96089.16;;;5.55;92.37
49451;BME280;35336;48.400;10.886;2024-02-28T01:03:25;96106.81;;;5.63;92.37
49451;BME280;35336;48.400;10.886;2024-02-28T01:03:40;96094.44;;;5.55;92.42
49451;BME280;35336;48.400;10.886;2024-02-28T01:03:55;96095.63;;;5.53;92.50
49451;BME280;35336;48.400;10.886;2024-02-28T01:04:13;96098.09;;;5.54;92.72
49451;BME280;35336;48.400;10.886;2024-02-28T01:04:28;96096.91;;;5.57;92.47
49451;BME280;35336;48.400;10.886;2024-02-28T01:04:46;96093.47;;;5.48;92.62
49451;BME280;35336;48.400;10.886;2024-02-28T01:05:02;96105.34;;;5.52;93.04
49451;BME280;35336;48.400;10.886;2024-02-28T01:05:17;96102.38;;;5.55;92.95
49451;BME280;35336;48.400;10.886;2024-02-28T01:05:32;96100.06;;;5.52;92.81
49451;BME280;35336;48.400;10.886;2024-02-28T01:05:49;96106.69;;;5.56;92.67
49451;BME280;35336;48.400;10.886;2024-02-28T01:06:07;96105.03;;;5.55;92.92
49451;BME280;35336;48.400;10.886;2024-02-28T01:06:22;96105.84;;;5.56;93.07
49451;BME280;35336;48.400;10.886;2024-02-28T01:06:38;96103.19;;;5.56;92.61
49451;BME280;35336;48.400;10.886;2024-02-28T01:06:53;96105.84;;;5.56;92.61
49451;BME280;35336;48.400;10.886;2024-02-28T01:07:08;96113.25;;;5.61;92.92
49451;BME280;35336;48.400;10.886;2024-02-28T01:07:24;96108.16;;;5.59;92.63
49451;BME280;35336;48.400;10.886;2024-02-28T01:07:41;96106.50;;;5.58;92.75
49451;BME280;35336;48.400;10.886;2024-02-28T01:07:56;96107.66;;;5.55;92.75
49451;BME280;35336;48.400;10.886;2024-02-28T01:08:12;96108.47;;;5.56;92.78
49451;BME280;35336;48.400;10.886;2024-02-28T01:08:27;96111.13;;;5.56;93.10
49451;BME280;35336;48.400;10.886;2024-02-28T01:08:44;96114.94;;;5.53;92.82
49451;BME280;35336;48.400;10.886;2024-02-28T01:09:00;96114.28;;;5.51;93.17
49451;BME280;35336;48.400;10.886;2024-02-28T01:09:15;96113.47;;;5.51;93.25
49451;BME280;35336;48.400;10.886;2024-02-28T01:09:30;96109.81;;;5.52;93.30
49451;BME280;35336;48.400;10.886;2024-02-28T01:09:45;96107.50;;;5.49;93.10
49451;BME280;35336;48.400;10.886;2024-02-28T01:10:01;96109.81;;;5.52;93.15
49451;BME280;35336;48.400;10.886;2024-02-28T01:10:16;96111.81;;;5.50;93.15
49451;BME280;35336;48.400;10.886;2024-02-28T01:10:33;96103.56;;;5.45;93.26
49451;BME280;35336;48.400;10.886;2024-02-28T01:10:48;96118.56;;;5.52;93.02
49451;BME280;35336;48.400;10.886;2024-02-28T01:11:07;96100.25;;;5.43;93.28
49451;BME280;35336;48.400;10.886;2024-02-28T01:11:22;96093.19;;;5.35;93.31
49451;BME280;35336;48.400;10.886;2024-02-28T01:11:37;96109.66;;;5.45;93.16
49451;BME280;35336;48.400;10.886;2024-02-28T01:11:53;96119.41;;;5.53;93.62
49451;BME280;35336;48.400;10.886;2024-02-28T01:12:08;96119.75;;;5.50;93.15
49451;BME280;35336;48.400;10.886;2024-02-28T01:12:25;96109.03;;;5.43;93.50
49451;BME280;35336;48.400;10.886;2024-02-28T01:12:41;96124.03;;;5.51;93.45
49451;BME280;35336;48.400;10.886;2024-02-28T01:12:56;96116.78;;;5.53;93.22
49451;BME280;35336;48.400;10.886;2024-02-28T01:13:15;96115.13;;;5.52;93.19
49451;BME280;35336;48.400;10.886;2024-02-28T01:13:30;96119.41;;;5.53;93.17
49451;BME280;35336;48.400;10.886;2024-02-28T01:13:45;96126.50;;;5.52;93.28
49451;BME280;35336;48.400;10.886;2024-02-28T01:14:00;96118.44;;;5.54;93.25
49451;BME280;35336;48.400;10.886;2024-02-28T01:14:18;96104.56;;;5.44;93.53
49451;BME280;35336;48.400;10.886;2024-02-28T01:14:33;96099.28;;;5.35;93.45
49451;BME280;35336;48.400;10.886;2024-02-28T01:14:49;96088.06;;;5.25;93.49
49451;BME280;35336;48.400;10.886;2024-02-28T01:15:04;96112.97;;;5.47;93.62
49451;BME280;35336;48.400;10.886;2024-02-28T01:15:22;96128.34;;;5.52;93.19
49451;BME280;35336;48.400;10.886;2024-02-28T01:15:39;96120.25;;;5.45;93.83
49451;BME280;35336;48.400;10.886;2024-02-28T01:15:55;96122.38;;;5.50;93.87
49451;BME280;35336;48.400;10.886;2024-02-28T01:16:10;96103.78;;;5.35;93.83
49451;BME280;35336;48.400;10.886;2024-02-28T01:16:25;96124.03;;;5.51;93.79
49451;BME280;35336;48.400;10.886;2024-02-28T01:16:40;96109.19;;;5.41;93.43
49451;BME280;35336;48.400;10.886;2024-02-28T01:16:56;96126.88;;;5.49;93.45
49451;BME280;35336;48.400;10.886;2024-02-28T01:17:11;96128.66;;;5.49;93.27
49451;BME280;35336;48.400;10.886;2024-02-28T01:17:26;96133.31;;;5.47;93.40
49451;BME280;35336;48.400;10.886;2024-02-28T01:17:41;96124.06;;;5.43;93.71
49451;BME280;35336;48.400;10.886;2024-02-28T01:17:57;96135.78;;;5.48;93.86
49451;BME280;35336;48.400;10.886;2024-02-28T01:18:12;96127.69;;;5.50;93.87
49451;BME280;35336;48.400;10.886;2024-02-28T01:18:27;96132.63;;;5.53;93.62
49451;BME280;35336;48.400;10.886;2024-02-28T01:18:43;96101.63;;;5.38;93.14
49451;BME280;35336;48.400;10.886;2024-02-28T01:19:01;96127.97;;;5.55;93.42
49451;BME280;35336;48.400;10.886;2024-02-28T01:19:16;96134.13;;;5.55;92.99
49451;BME280;35336;48.400;10.886;2024-02-28T01:19:31;96132.28;;;5.56;93.09
49451;BME280;35336;48.400;10.886;2024-02-28T01:19:47;96121.06;;;5.54;92.79
49451;BME280;35336;48.400;10.886;2024-02-28T01:20:02;96134.78;;;5.57;93.11
49451;BME280;35336;48.400;10.886;2024-02-28T01:20:18;96117.28;;;5.48;93.19
49451;BME280;35336;48.400;10.886;2024-02-28T01:20:33;96134.25;;;5.62;93.08
49451;BME280;35336;48.400;10.886;2024-02-28T01:20:48;96129.13;;;5.61;92.90
49451;BME280;35336;48.400;10.886;2024-02-28T01:21:03;96132.63;;;5.61;92.74
49451;BME280;35336;48.400;10.886;2024-02-28T01:21:19;96120.72;;;5.49;92.92
49451;BME280;35336;48.400;10.886;2024-02-28T01:21:34;96128.81;;;5.55;92.96
49451;BME280;35336;48.400;10.886;2024-02-28T01:21:49;96133.63;;;5.60;93.08
49451;BME280;35336;48.400;10.886;2024-02-28T01:22:04;96134.59;;;5.59;92.89
49451;BME280;35336;48.400;10.886;2024-02-28T01:22:20;96129.81;;;5.54;93.01
49451;BME280;35336;48.400;10.886;2024-02-28T01:22:35;96134.28;;;5.54;92.84
49451;BME280;35336;48.400;10.886;2024-02-28T01:22:53;96136.59;;;5.57;92.81
49451;BME280;35336;48.400;10.886;2024-02-28T01:23:09;96134.94;;;5.56;92.76
49451;BME280;35336;48.400;10.886;2024-02-28T01:23:24;96138.41;;;5.56;92.88